sensor_id;sensor_type;location;lat;lon;timestamp;P1;durP1;ratioP1;P2;durP2;ratioP2
64875;SDS011;51369;49.862;9.908;2023-07-08T00:01:11;7.35;;;5.15;;
64875;SDS011;51369;49.862;9.908;2023-07-08T00:03:39;9.50;;;5.30;;
64875;SDS011;51369;49.862;9.908;2023-07-08T00:06:07;7.68;;;4.68;;
64875;SDS011;51369;49.862;9.908;2023-07-08T00:08:36;7.22;;;4.57;;
64875;SDS011;51369;49.862;9.908;2023-07-08T00:11:01;8.65;;;5.05;;
64875;SDS011;51369;49.862;9.908;2023-07-08T00:13:32;9.68;;;5.35;;
64875;SDS011;51369;49.862;9.908;2023-07-08T00:15:58;7.85;;;5.00;;
64875;SDS011;51369;49.862;9.908;2023-07-08T00:18:23;7.32;;;5.43;;
64875;SDS011;51369;49.862;9.908;2023-07-08T00:20:49;8.10;;;4.90;;
64875;SDS011;51369;49.862;9.908;2023-07-08T00:23:15;6.00;;;5.25;;
64875;SDS011;51369;49.862;9.908;2023-07-08T00:25:41;7.60;;;5.10;;
64875;SDS011;51369;49.862;9.908;2023-07-08T00:28:08;10.43;;;5.25;;
64875;SDS011;51369;49.862;9.908;2023-07-08T00:30:35;7.90;;;5.40;;
64875;SDS011;51369;49.862;9.908;2023-07-08T00:33:00;6.18;;;4.75;;
64875;SDS011;51369;49.862;9.908;2023-07-08T00:35:33;6.95;;;5.22;;
64875;SDS011;51369;49.862;9.908;2023-07-08T00:38:00;8.60;;;5.18;;
64875;SDS011;51369;49.862;9.908;2023-07-08T00:40:28;8.88;;;5.05;;
64875;SDS011;51369;49.862;9.908;2023-07-08T00:42:55;8.77;;;4.75;;
64875;SDS011;51369;49.862;9.908;2023-07-08T00:48:00;7.28;;;5.18;;
64875;SDS011;51369;49.862;9.908;2023-07-08T00:50:31;7.63;;;5.28;;
64875;SDS011;51369;49.862;9.908;2023-07-08T00:56:08;7.38;;;4.95;;
64875;SDS011;51369;49.862;9.908;2023-07-08T00:58:42;8.32;;;5.38;;
64875;SDS011;51369;49.862;9.908;2023-07-08T01:01:17;6.80;;;4.88;;
64875;SDS011;51369;49.862;9.908;2023-07-08T01:03:54;7.63;;;5.38;;
64875;SDS011;51369;49.862;9.908;2023-07-08T01:06:26;9.43;;;5.18;;
64875;SDS011;51369;49.862;9.908;2023-07-08T01:09:00;8.52;;;5.07;;
64875;SDS011;51369;49.862;9.908;2023-07-08T01:11:28;9.18;;;5.32;;
64875;SDS011;51369;49.862;9.908;2023-07-08T01:13:54;6.78;;;5.05;;
64875;SDS011;51369;49.862;9.908;2023-07-08T01:16:21;5.50;;;4.63;;
64875;SDS011;51369;49.862;9.908;2023-07-08T01:18:47;8.27;;;4.78;;
64875;SDS011;51369;49.862;9.908;2023-07-08T01:24:10;8.48;;;4.97;;
64875;SDS011;51369;49.862;9.908;2023-07-08T01:26:37;10.85;;;4.88;;
64875;SDS011;51369;49.862;9.908;2023-07-08T01:29:05;6.45;;;4.88;;
64875;SDS011;51369;49.862;9.908;2023-07-08T01:31:32;7.00;;;5.20;;
64875;SDS011;51369;49.862;9.908;2023-07-08T01:33:58;8.98;;;5.00;;
64875;SDS011;51369;49.862;9.908;2023-07-08T01:36:24;5.90;;;4.93;;
64875;SDS011;51369;49.862;9.908;2023-07-08T01:38:51;9.77;;;5.35;;
64875;SDS011;51369;49.862;9.908;2023-07-08T01:41:16;6.70;;;4.70;;
64875;SDS011;51369;49.862;9.908;2023-07-08T01:43:42;7.80;;;5.00;;
64875;SDS011;51369;49.862;9.908;2023-07-08T01:46:12;7.97;;;5.50;;
64875;SDS011;51369;49.862;9.908;2023-07-08T01:48:43;7.38;;;4.68;;
64875;SDS011;51369;49.862;9.908;2023-07-08T01:51:17;6.68;;;5.22;;
64875;SDS011;51369;49.862;9.908;2023-07-08T01:53:42;6.50;;;5.00;;
64875;SDS011;51369;49.862;9.908;2023-07-08T01:56:08;6.28;;;5.18;;
64875;SDS011;51369;49.862;9.908;2023-07-08T01:58:36;9.02;;;5.82;;
64875;SDS011;51369;49.862;9.908;2023-07-08T02:01:02;8.77;;;4.78;;
64875;SDS011;51369;49.862;9.908;2023-07-08T02:03:29;8.77;;;5.40;;
64875;SDS011;51369;49.862;9.908;2023-07-08T02:05:54;6.00;;;5.22;;
64875;SDS011;51369;49.862;9.908;2023-07-08T02:08:20;8.13;;;5.15;;
64875;SDS011;51369;49.862;9.908;2023-07-08T02:10:51;7.35;;;5.13;;
64875;SDS011;51369;49.862;9.908;2023-07-08T02:13:20;7.63;;;5.38;;
64875;SDS011;51369;49.862;9.908;2023-07-08T02:15:47;7.90;;;5.35;;
64875;SDS011;51369;49.862;9.908;2023-07-08T02:18:13;6.78;;;5.50;;
64875;SDS011;51369;49.862;9.908;2023-07-08T02:20:42;7.30;;;5.55;;
64875;SDS011;51369;49.862;9.908;2023-07-08T02:23:08;8.30;;;5.20;;
64875;SDS011;51369;49.862;9.908;2023-07-08T02:25:33;6.55;;;5.00;;
64875;SDS011;51369;49.862;9.908;2023-07-08T02:27:59;8.20;;;4.85;;
64875;SDS011;51369;49.862;9.908;2023-07-08T02:30:24;9.52;;;5.90;;
64875;SDS011;51369;49.862;9.908;2023-07-08T02:32:49;7.30;;;5.75;;
64875;SDS011;51369;49.862;9.908;2023-07-08T02:37:48;6.65;;;4.75;;
64875;SDS011;51369;49.862;9.908;2023-07-08T02:40:14;9.68;;;5.55;;
64875;SDS011;51369;49.862;9.908;2023-07-08T02:42:39;7.63;;;5.35;;
64875;SDS011;51369;49.862;9.908;2023-07-08T02:45:05;8.98;;;5.97;;
64875;SDS011;51369;49.862;9.908;2023-07-08T02:47:31;6.60;;;4.88;;
64875;SDS011;51369;49.862;9.908;2023-07-08T02:49:56;8.30;;;5.80;;
64875;SDS011;51369;49.862;9.908;2023-07-08T02:52:22;11.85;;;5.38;;
64875;SDS011;51369;49.862;9.908;2023-07-08T02:54:47;12.10;;;5.88;;
64875;SDS011;51369;49.862;9.908;2023-07-08T02:57:12;10.30;;;5.65;;
64875;SDS011;51369;49.862;9.908;2023-07-08T02:59:38;8.75;;;5.70;;
64875;SDS011;51369;49.862;9.908;2023-07-08T03:02:03;8.45;;;5.70;;
64875;SDS011;51369;49.862;9.908;2023-07-08T03:04:29;8.05;;;5.07;;
64875;SDS011;51369;49.862;9.908;2023-07-08T03:06:55;6.65;;;5.35;;
64875;SDS011;51369;49.862;9.908;2023-07-08T03:09:21;8.32;;;5.70;;
64875;SDS011;51369;49.862;9.908;2023-07-08T03:11:46;7.07;;;4.97;;
64875;SDS011;51369;49.862;9.908;2023-07-08T03:14:11;7.95;;;5.38;;
64875;SDS011;51369;49.862;9.908;2023-07-08T03:16:37;7.03;;;5.40;;
64875;SDS011;51369;49.862;9.908;2023-07-08T03:19:03;6.60;;;5.60;;
64875;SDS011;51369;49.862;9.908;2023-07-08T03:21:29;7.70;;;5.35;;
64875;SDS011;51369;49.862;9.908;2023-07-08T03:23:56;7.32;;;5.28;;
64875;SDS011;51369;49.862;9.908;2023-07-08T03:26:23;8.27;;;5.65;;
64875;SDS011;51369;49.862;9.908;2023-07-08T03:28:51;6.63;;;5.25;;
64875;SDS011;51369;49.862;9.908;2023-07-08T03:31:18;7.65;;;5.55;;
64875;SDS011;51369;49.862;9.908;2023-07-08T03:33:44;7.43;;;5.30;;
64875;SDS011;51369;49.862;9.908;2023-07-08T03:36:12;8.85;;;5.57;;
64875;SDS011;51369;49.862;9.908;2023-07-08T03:38:49;6.35;;;4.93;;
64875;SDS011;51369;49.862;9.908;2023-07-08T03:41:19;6.95;;;5.45;;
64875;SDS011;51369;49.862;9.908;2023-07-08T03:43:45;9.18;;;4.97;;
64875;SDS011;51369;49.862;9.908;2023-07-08T03:46:12;8.85;;;6.00;;
64875;SDS011;51369;49.862;9.908;2023-07-08T03:48:39;6.80;;;5.40;;
64875;SDS011;51369;49.862;9.908;2023-07-08T03:51:15;9.13;;;5.32;;
64875;SDS011;51369;49.862;9.908;2023-07-08T03:53:46;7.38;;;5.32;;
64875;SDS011;51369;49.862;9.908;2023-07-08T03:56:12;8.75;;;6.18;;
64875;SDS011;51369;49.862;9.908;2023-07-08T03:58:39;7.50;;;5.32;;
64875;SDS011;51369;49.862;9.908;2023-07-08T04:01:08;7.43;;;5.45;;
64875;SDS011;51369;49.862;9.908;2023-07-08T04:03:40;10.50;;;5.88;;
64875;SDS011;51369;49.862;9.908;2023-07-08T04:06:06;7.80;;;5.18;;
64875;SDS011;51369;49.862;9.908;2023-07-08T04:08:31;10.52;;;5.50;;
64875;SDS011;51369;49.862;9.908;2023-07-08T04:10:57;7.82;;;4.93;;
64875;SDS011;51369;49.862;9.908;2023-07-08T04:13:22;8.20;;;5.93;;
64875;SDS011;51369;49.862;9.908;2023-07-08T04:15:50;7.07;;;5.82;;
64875;SDS011;51369;49.862;9.908;2023-07-08T04:20:45;8.13;;;5.35;;
64875;SDS011;51369;49.862;9.908;2023-07-08T04:23:17;6.68;;;4.68;;
64875;SDS011;51369;49.862;9.908;2023-07-08T04:25:43;11.13;;;5.50;;
64875;SDS011;51369;49.862;9.908;2023-07-08T04:28:09;7.68;;;4.72;;
64875;SDS011;51369;49.862;9.908;2023-07-08T04:30:34;8.40;;;5.63;;
64875;SDS011;51369;49.862;9.908;2023-07-08T04:33:06;8.50;;;5.95;;
64875;SDS011;51369;49.862;9.908;2023-07-08T04:35:38;7.93;;;5.35;;
64875;SDS011;51369;49.862;9.908;2023-07-08T04:38:05;7.40;;;5.85;;
64875;SDS011;51369;49.862;9.908;2023-07-08T04:40:35;7.97;;;5.38;;
64875;SDS011;51369;49.862;9.908;2023-07-08T04:43:04;12.73;;;6.25;;
64875;SDS011;51369;49.862;9.908;2023-07-08T04:45:35;8.32;;;5.90;;
64875;SDS011;51369;49.862;9.908;2023-07-08T04:48:02;7.70;;;5.45;;
64875;SDS011;51369;49.862;9.908;2023-07-08T04:50:33;7.88;;;5.50;;
64875;SDS011;51369;49.862;9.908;2023-07-08T04:52:59;11.13;;;5.70;;
64875;SDS011;51369;49.862;9.908;2023-07-08T04:55:25;6.32;;;4.50;;
64875;SDS011;51369;49.862;9.908;2023-07-08T04:57:50;6.47;;;5.05;;
64875;SDS011;51369;49.862;9.908;2023-07-08T05:00:17;8.10;;;5.22;;
64875;SDS011;51369;49.862;9.908;2023-07-08T05:02:44;7.45;;;5.13;;
64875;SDS011;51369;49.862;9.908;2023-07-08T05:05:09;8.70;;;5.68;;
64875;SDS011;51369;49.862;9.908;2023-07-08T05:07:35;8.05;;;5.60;;
64875;SDS011;51369;49.862;9.908;2023-07-08T05:10:00;8.63;;;5.38;;
64875;SDS011;51369;49.862;9.908;2023-07-08T05:12:26;8.68;;;4.82;;
64875;SDS011;51369;49.862;9.908;2023-07-08T05:14:52;11.00;;;5.05;;
64875;SDS011;51369;49.862;9.908;2023-07-08T05:17:17;8.18;;;5.55;;
64875;SDS011;51369;49.862;9.908;2023-07-08T05:19:43;7.00;;;5.53;;
64875;SDS011;51369;49.862;9.908;2023-07-08T05:22:10;5.68;;;4.60;;
64875;SDS011;51369;49.862;9.908;2023-07-08T05:24:35;7.68;;;5.10;;
64875;SDS011;51369;49.862;9.908;2023-07-08T05:27:02;6.97;;;5.10;;
64875;SDS011;51369;49.862;9.908;2023-07-08T05:29:28;6.32;;;4.88;;
64875;SDS011;51369;49.862;9.908;2023-07-08T05:31:54;8.35;;;5.22;;
64875;SDS011;51369;49.862;9.908;2023-07-08T05:34:20;8.07;;;5.85;;
64875;SDS011;51369;49.862;9.908;2023-07-08T05:36:45;7.78;;;5.47;;
64875;SDS011;51369;49.862;9.908;2023-07-08T05:39:10;9.05;;;5.45;;
64875;SDS011;51369;49.862;9.908;2023-07-08T05:41:36;7.45;;;5.68;;
64875;SDS011;51369;49.862;9.908;2023-07-08T05:44:02;6.63;;;5.22;;
64875;SDS011;51369;49.862;9.908;2023-07-08T05:46:27;7.00;;;5.30;;
64875;SDS011;51369;49.862;9.908;2023-07-08T05:48:53;8.68;;;5.35;;
64875;SDS011;51369;49.862;9.908;2023-07-08T05:51:19;8.70;;;5.40;;
64875;SDS011;51369;49.862;9.908;2023-07-08T05:53:45;6.72;;;6.03;;
64875;SDS011;51369;49.862;9.908;2023-07-08T05:56:10;10.25;;;5.95;;
64875;SDS011;51369;49.862;9.908;2023-07-08T05:58:36;7.68;;;5.28;;
64875;SDS011;51369;49.862;9.908;2023-07-08T06:01:01;12.43;;;5.80;;
64875;SDS011;51369;49.862;9.908;2023-07-08T06:03:26;7.70;;;5.25;;
64875;SDS011;51369;49.862;9.908;2023-07-08T06:05:52;9.70;;;5.80;;
64875;SDS011;51369;49.862;9.908;2023-07-08T06:08:17;8.73;;;5.88;;
64875;SDS011;51369;49.862;9.908;2023-07-08T06:10:44;11.32;;;5.63;;
64875;SDS011;51369;49.862;9.908;2023-07-08T06:13:10;6.95;;;4.97;;
64875;SDS011;51369;49.862;9.908;2023-07-08T06:15:36;8.43;;;5.35;;
64875;SDS011;51369;49.862;9.908;2023-07-08T06:18:02;8.05;;;5.25;;
64875;SDS011;51369;49.862;9.908;2023-07-08T06:20:28;7.50;;;5.00;;
64875;SDS011;51369;49.862;9.908;2023-07-08T06:22:54;9.65;;;5.55;;
64875;SDS011;51369;49.862;9.908;2023-07-08T06:25:20;7.28;;;5.00;;
64875;SDS011;51369;49.862;9.908;2023-07-08T06:27:45;7.13;;;5.22;;
64875;SDS011;51369;49.862;9.908;2023-07-08T06:30:11;9.63;;;5.60;;
64875;SDS011;51369;49.862;9.908;2023-07-08T06:32:36;7.93;;;5.28;;
64875;SDS011;51369;49.862;9.908;2023-07-08T06:35:02;9.02;;;5.60;;
64875;SDS011;51369;49.862;9.908;2023-07-08T06:37:27;8.43;;;5.72;;
64875;SDS011;51369;49.862;9.908;2023-07-08T06:39:53;7.35;;;5.40;;
64875;SDS011;51369;49.862;9.908;2023-07-08T06:42:18;7.95;;;5.78;;
64875;SDS011;51369;49.862;9.908;2023-07-08T06:44:52;6.85;;;5.25;;
64875;SDS011;51369;49.862;9.908;2023-07-08T06:47:18;9.02;;;5.40;;
64875;SDS011;51369;49.862;9.908;2023-07-08T06:49:47;6.80;;;5.43;;
64875;SDS011;51369;49.862;9.908;2023-07-08T06:52:13;6.13;;;5.03;;
64875;SDS011;51369;49.862;9.908;2023-07-08T06:54:39;10.63;;;5.63;;
64875;SDS011;51369;49.862;9.908;2023-07-08T06:57:05;9.68;;;5.97;;
64875;SDS011;51369;49.862;9.908;2023-07-08T06:59:31;7.90;;;5.50;;
64875;SDS011;51369;49.862;9.908;2023-07-08T07:01:57;7.93;;;5.47;;
64875;SDS011;51369;49.862;9.908;2023-07-08T07:04:22;9.15;;;5.97;;
64875;SDS011;51369;49.862;9.908;2023-07-08T07:06:47;7.47;;;6.43;;
64875;SDS011;51369;49.862;9.908;2023-07-08T07:09:12;8.07;;;5.43;;
64875;SDS011;51369;49.862;9.908;2023-07-08T07:11:38;8.45;;;5.60;;
64875;SDS011;51369;49.862;9.908;2023-07-08T07:14:03;8.02;;;5.50;;
64875;SDS011;51369;49.862;9.908;2023-07-08T07:16:29;8.43;;;5.88;;
64875;SDS011;51369;49.862;9.908;2023-07-08T07:18:54;6.88;;;5.63;;
64875;SDS011;51369;49.862;9.908;2023-07-08T07:21:20;8.25;;;5.20;;
64875;SDS011;51369;49.862;9.908;2023-07-08T07:23:45;6.50;;;5.40;;
64875;SDS011;51369;49.862;9.908;2023-07-08T07:26:10;7.20;;;5.63;;
64875;SDS011;51369;49.862;9.908;2023-07-08T07:28:36;7.38;;;5.50;;
64875;SDS011;51369;49.862;9.908;2023-07-08T07:31:03;9.65;;;5.53;;
64875;SDS011;51369;49.862;9.908;2023-07-08T07:33:31;7.20;;;5.97;;
64875;SDS011;51369;49.862;9.908;2023-07-08T07:35:57;7.28;;;5.65;;
64875;SDS011;51369;49.862;9.908;2023-07-08T07:38:23;6.18;;;5.57;;
64875;SDS011;51369;49.862;9.908;2023-07-08T07:40:54;8.43;;;5.25;;
64875;SDS011;51369;49.862;9.908;2023-07-08T07:43:21;7.25;;;5.72;;
64875;SDS011;51369;49.862;9.908;2023-07-08T07:45:52;7.00;;;5.65;;
64875;SDS011;51369;49.862;9.908;2023-07-08T07:48:19;6.80;;;5.45;;
64875;SDS011;51369;49.862;9.908;2023-07-08T07:50:48;9.65;;;5.55;;
64875;SDS011;51369;49.862;9.908;2023-07-08T07:53:15;5.97;;;4.85;;
64875;SDS011;51369;49.862;9.908;2023-07-08T07:55:40;7.53;;;5.78;;
64875;SDS011;51369;49.862;9.908;2023-07-08T07:58:06;5.97;;;5.07;;
64875;SDS011;51369;49.862;9.908;2023-07-08T08:00:33;11.07;;;5.68;;
64875;SDS011;51369;49.862;9.908;2023-07-08T08:02:58;7.43;;;6.10;;
64875;SDS011;51369;49.862;9.908;2023-07-08T08:05:24;8.40;;;5.00;;
64875;SDS011;51369;49.862;9.908;2023-07-08T08:07:49;6.35;;;5.05;;
64875;SDS011;51369;49.862;9.908;2023-07-08T08:10:15;10.00;;;5.45;;
64875;SDS011;51369;49.862;9.908;2023-07-08T08:12:41;7.70;;;5.50;;
64875;SDS011;51369;49.862;9.908;2023-07-08T08:15:07;8.48;;;6.10;;
64875;SDS011;51369;49.862;9.908;2023-07-08T08:17:32;6.18;;;5.43;;
64875;SDS011;51369;49.862;9.908;2023-07-08T08:19:58;6.82;;;5.68;;
64875;SDS011;51369;49.862;9.908;2023-07-08T08:22:23;8.82;;;5.72;;
64875;SDS011;51369;49.862;9.908;2023-07-08T08:24:49;6.68;;;5.13;;
64875;SDS011;51369;49.862;9.908;2023-07-08T08:27:14;10.27;;;5.60;;
64875;SDS011;51369;49.862;9.908;2023-07-08T08:29:40;6.72;;;5.50;;
64875;SDS011;51369;49.862;9.908;2023-07-08T08:32:06;9.80;;;5.93;;
64875;SDS011;51369;49.862;9.908;2023-07-08T08:34:31;8.63;;;5.55;;
64875;SDS011;51369;49.862;9.908;2023-07-08T08:36:57;8.60;;;5.63;;
64875;SDS011;51369;49.862;9.908;2023-07-08T08:39:22;7.22;;;5.25;;
64875;SDS011;51369;49.862;9.908;2023-07-08T08:41:48;6.88;;;5.55;;
64875;SDS011;51369;49.862;9.908;2023-07-08T08:44:20;7.50;;;6.05;;
64875;SDS011;51369;49.862;9.908;2023-07-08T08:46:55;6.50;;;5.35;;
64875;SDS011;51369;49.862;9.908;2023-07-08T08:49:34;6.78;;;5.32;;
64875;SDS011;51369;49.862;9.908;2023-07-08T08:52:05;8.90;;;5.78;;
64875;SDS011;51369;49.862;9.908;2023-07-08T08:54:31;6.68;;;5.28;;
64875;SDS011;51369;49.862;9.908;2023-07-08T08:57:00;8.25;;;5.47;;
64875;SDS011;51369;49.862;9.908;2023-07-08T08:59:49;6.90;;;5.75;;
64875;SDS011;51369;49.862;9.908;2023-07-08T09:05:09;6.82;;;5.50;;
64875;SDS011;51369;49.862;9.908;2023-07-08T09:07:41;8.85;;;4.57;;
64875;SDS011;51369;49.862;9.908;2023-07-08T09:10:21;6.25;;;5.05;;
64875;SDS011;51369;49.862;9.908;2023-07-08T09:12:58;5.78;;;5.13;;
64875;SDS011;51369;49.862;9.908;2023-07-08T09:15:29;6.07;;;5.43;;
64875;SDS011;51369;49.862;9.908;2023-07-08T09:17:54;8.82;;;5.28;;
64875;SDS011;51369;49.862;9.908;2023-07-08T09:20:26;8.45;;;5.72;;
64875;SDS011;51369;49.862;9.908;2023-07-08T09:22:55;10.60;;;5.70;;
64875;SDS011;51369;49.862;9.908;2023-07-08T09:25:30;5.85;;;5.25;;
64875;SDS011;51369;49.862;9.908;2023-07-08T09:28:00;8.73;;;5.55;;
64875;SDS011;51369;49.862;9.908;2023-07-08T09:30:26;5.75;;;5.15;;
64875;SDS011;51369;49.862;9.908;2023-07-08T09:32:55;7.85;;;5.25;;
64875;SDS011;51369;49.862;9.908;2023-07-08T09:35:27;8.10;;;5.35;;
64875;SDS011;51369;49.862;9.908;2023-07-08T09:38:02;6.78;;;5.18;;
64875;SDS011;51369;49.862;9.908;2023-07-08T09:40:32;9.00;;;4.97;;
64875;SDS011;51369;49.862;9.908;2023-07-08T09:43:00;7.60;;;4.90;;
64875;SDS011;51369;49.862;9.908;2023-07-08T09:45:40;6.57;;;5.60;;
64875;SDS011;51369;49.862;9.908;2023-07-08T09:48:14;6.88;;;5.38;;
64875;SDS011;51369;49.862;9.908;2023-07-08T09:50:42;8.65;;;5.68;;
64875;SDS011;51369;49.862;9.908;2023-07-08T09:53:11;6.60;;;5.50;;
64875;SDS011;51369;49.862;9.908;2023-07-08T09:55:38;6.72;;;5.47;;
64875;SDS011;51369;49.862;9.908;2023-07-08T09:58:04;7.22;;;5.50;;
64875;SDS011;51369;49.862;9.908;2023-07-08T10:00:40;6.03;;;5.40;;
64875;SDS011;51369;49.862;9.908;2023-07-08T10:03:19;6.57;;;4.82;;
64875;SDS011;51369;49.862;9.908;2023-07-08T10:05:47;7.07;;;5.20;;
64875;SDS011;51369;49.862;9.908;2023-07-08T10:08:20;5.78;;;5.18;;
64875;SDS011;51369;49.862;9.908;2023-07-08T10:10:48;5.82;;;4.95;;
64875;SDS011;51369;49.862;9.908;2023-07-08T10:16:01;6.35;;;4.95;;
64875;SDS011;51369;49.862;9.908;2023-07-08T10:18:37;8.63;;;5.50;;
64875;SDS011;51369;49.862;9.908;2023-07-08T10:21:11;6.60;;;5.55;;
64875;SDS011;51369;49.862;9.908;2023-07-08T10:23:55;6.35;;;5.40;;
64875;SDS011;51369;49.862;9.908;2023-07-08T10:26:42;6.45;;;5.30;;
64875;SDS011;51369;49.862;9.908;2023-07-08T10:29:27;7.38;;;4.97;;
64875;SDS011;51369;49.862;9.908;2023-07-08T10:32:10;6.43;;;5.07;;
64875;SDS011;51369;49.862;9.908;2023-07-08T10:37:38;8.32;;;5.40;;
64875;SDS011;51369;49.862;9.908;2023-07-08T10:45:37;8.10;;;6.18;;
64875;SDS011;51369;49.862;9.908;2023-07-08T10:48:21;7.25;;;5.90;;
64875;SDS011;51369;49.862;9.908;2023-07-08T10:56:49;7.13;;;5.72;;
64875;SDS011;51369;49.862;9.908;2023-07-08T10:59:36;6.20;;;5.47;;
64875;SDS011;51369;49.862;9.908;2023-07-08T11:05:05;7.18;;;5.88;;
64875;SDS011;51369;49.862;9.908;2023-07-08T11:07:56;5.72;;;5.20;;
64875;SDS011;51369;49.862;9.908;2023-07-08T11:10:38;6.68;;;5.63;;
64875;SDS011;51369;49.862;9.908;2023-07-08T11:13:25;5.70;;;5.00;;
64875;SDS011;51369;49.862;9.908;2023-07-08T11:15:57;6.38;;;5.65;;
64875;SDS011;51369;49.862;9.908;2023-07-08T11:21:24;9.48;;;5.82;;
64875;SDS011;51369;49.862;9.908;2023-07-08T11:26:42;6.63;;;5.55;;
64875;SDS011;51369;49.862;9.908;2023-07-08T11:29:29;6.68;;;5.95;;
64875;SDS011;51369;49.862;9.908;2023-07-08T11:32:05;6.97;;;5.78;;
64875;SDS011;51369;49.862;9.908;2023-07-08T11:34:34;8.80;;;6.45;;
64875;SDS011;51369;49.862;9.908;2023-07-08T11:37:02;6.47;;;5.43;;
64875;SDS011;51369;49.862;9.908;2023-07-08T11:39:32;7.03;;;6.07;;
64875;SDS011;51369;49.862;9.908;2023-07-08T11:42:21;6.25;;;5.55;;
64875;SDS011;51369;49.862;9.908;2023-07-08T11:44:52;7.25;;;5.53;;
64875;SDS011;51369;49.862;9.908;2023-07-08T11:47:35;8.25;;;5.32;;
64875;SDS011;51369;49.862;9.908;2023-07-08T11:50:03;9.30;;;6.80;;
64875;SDS011;51369;49.862;9.908;2023-07-08T11:52:51;7.70;;;6.13;;
64875;SDS011;51369;49.862;9.908;2023-07-08T11:55:24;6.68;;;5.97;;
64875;SDS011;51369;49.862;9.908;2023-07-08T11:57:54;6.70;;;6.03;;
64875;SDS011;51369;49.862;9.908;2023-07-08T12:00:24;6.18;;;5.45;;
64875;SDS011;51369;49.862;9.908;2023-07-08T12:02:52;8.27;;;5.65;;
64875;SDS011;51369;49.862;9.908;2023-07-08T12:05:30;8.77;;;5.63;;
64875;SDS011;51369;49.862;9.908;2023-07-08T12:07:57;8.23;;;6.22;;
64875;SDS011;51369;49.862;9.908;2023-07-08T12:10:37;7.15;;;6.05;;
64875;SDS011;51369;49.862;9.908;2023-07-08T12:13:09;6.85;;;5.57;;
64875;SDS011;51369;49.862;9.908;2023-07-08T12:15:38;9.20;;;5.68;;
64875;SDS011;51369;49.862;9.908;2023-07-08T12:21:03;9.00;;;5.65;;
64875;SDS011;51369;49.862;9.908;2023-07-08T12:23:30;7.00;;;5.95;;
64875;SDS011;51369;49.862;9.908;2023-07-08T12:25:56;10.27;;;6.03;;
64875;SDS011;51369;49.862;9.908;2023-07-08T12:28:25;7.43;;;6.45;;
64875;SDS011;51369;49.862;9.908;2023-07-08T12:30:51;8.00;;;5.85;;
64875;SDS011;51369;49.862;9.908;2023-07-08T12:33:25;6.88;;;6.15;;
64875;SDS011;51369;49.862;9.908;2023-07-08T12:35:54;9.65;;;6.30;;
64875;SDS011;51369;49.862;9.908;2023-07-08T12:38:28;7.00;;;5.55;;
64875;SDS011;51369;49.862;9.908;2023-07-08T12:40:58;7.90;;;6.28;;
64875;SDS011;51369;49.862;9.908;2023-07-08T12:43:25;11.38;;;6.55;;
64875;SDS011;51369;49.862;9.908;2023-07-08T12:45:51;9.27;;;5.47;;
64875;SDS011;51369;49.862;9.908;2023-07-08T12:48:17;6.57;;;5.97;;
64875;SDS011;51369;49.862;9.908;2023-07-08T12:50:42;7.72;;;6.32;;
64875;SDS011;51369;49.862;9.908;2023-07-08T12:53:07;6.43;;;5.82;;
64875;SDS011;51369;49.862;9.908;2023-07-08T12:55:37;10.52;;;6.15;;
64875;SDS011;51369;49.862;9.908;2023-07-08T12:58:07;6.95;;;6.25;;
64875;SDS011;51369;49.862;9.908;2023-07-08T13:00:38;6.57;;;5.75;;
64875;SDS011;51369;49.862;9.908;2023-07-08T13:03:07;7.78;;;6.40;;
64875;SDS011;51369;49.862;9.908;2023-07-08T13:05:39;6.85;;;5.82;;
64875;SDS011;51369;49.862;9.908;2023-07-08T13:08:07;7.20;;;6.50;;
64875;SDS011;51369;49.862;9.908;2023-07-08T13:10:41;9.50;;;6.18;;
64875;SDS011;51369;49.862;9.908;2023-07-08T13:13:11;8.35;;;6.57;;
64875;SDS011;51369;49.862;9.908;2023-07-08T13:15:43;6.28;;;5.68;;
64875;SDS011;51369;49.862;9.908;2023-07-08T13:18:16;6.82;;;5.93;;
64875;SDS011;51369;49.862;9.908;2023-07-08T13:20:56;10.00;;;6.28;;
64875;SDS011;51369;49.862;9.908;2023-07-08T13:23:23;6.85;;;6.15;;
64875;SDS011;51369;49.862;9.908;2023-07-08T13:25:50;8.93;;;5.93;;
64875;SDS011;51369;49.862;9.908;2023-07-08T13:30:57;7.13;;;5.80;;
64875;SDS011;51369;49.862;9.908;2023-07-08T13:33:29;8.57;;;6.53;;
64875;SDS011;51369;49.862;9.908;2023-07-08T13:35:56;8.73;;;5.95;;
64875;SDS011;51369;49.862;9.908;2023-07-08T13:38:22;8.60;;;7.18;;
64875;SDS011;51369;49.862;9.908;2023-07-08T13:43:26;7.25;;;5.80;;
64875;SDS011;51369;49.862;9.908;2023-07-08T13:45:54;7.82;;;7.00;;
64875;SDS011;51369;49.862;9.908;2023-07-08T13:48:40;8.07;;;6.40;;
64875;SDS011;51369;49.862;9.908;2023-07-08T13:51:08;7.15;;;6.45;;
64875;SDS011;51369;49.862;9.908;2023-07-08T13:56:17;10.70;;;6.53;;
64875;SDS011;51369;49.862;9.908;2023-07-08T13:59:04;7.45;;;6.70;;
64875;SDS011;51369;49.862;9.908;2023-07-08T14:01:31;7.32;;;6.50;;
64875;SDS011;51369;49.862;9.908;2023-07-08T14:03:58;7.70;;;6.35;;
64875;SDS011;51369;49.862;9.908;2023-07-08T14:06:28;7.00;;;6.28;;
64875;SDS011;51369;49.862;9.908;2023-07-08T14:08:57;7.88;;;6.63;;
64875;SDS011;51369;49.862;9.908;2023-07-08T14:11:26;9.40;;;7.20;;
64875;SDS011;51369;49.862;9.908;2023-07-08T14:13:52;8.00;;;6.03;;
64875;SDS011;51369;49.862;9.908;2023-07-08T14:16:23;7.68;;;6.88;;
64875;SDS011;51369;49.862;9.908;2023-07-08T14:18:50;7.15;;;6.45;;
64875;SDS011;51369;49.862;9.908;2023-07-08T14:21:17;7.45;;;6.68;;
64875;SDS011;51369;49.862;9.908;2023-07-08T14:23:43;7.22;;;6.35;;
64875;SDS011;51369;49.862;9.908;2023-07-08T14:26:11;6.90;;;6.20;;
64875;SDS011;51369;49.862;9.908;2023-07-08T14:28:37;7.65;;;6.90;;
64875;SDS011;51369;49.862;9.908;2023-07-08T14:31:03;11.30;;;6.10;;
64875;SDS011;51369;49.862;9.908;2023-07-08T14:33:33;8.23;;;6.40;;
64875;SDS011;51369;49.862;9.908;2023-07-08T14:35:58;8.25;;;6.90;;
64875;SDS011;51369;49.862;9.908;2023-07-08T14:38:23;12.85;;;6.35;;
64875;SDS011;51369;49.862;9.908;2023-07-08T14:40:49;6.75;;;6.15;;
64875;SDS011;51369;49.862;9.908;2023-07-08T14:43:20;7.10;;;6.10;;
64875;SDS011;51369;49.862;9.908;2023-07-08T14:45:53;7.28;;;6.07;;
64875;SDS011;51369;49.862;9.908;2023-07-08T14:48:20;11.82;;;6.47;;
64875;SDS011;51369;49.862;9.908;2023-07-08T14:50:46;10.02;;;6.18;;
64875;SDS011;51369;49.862;9.908;2023-07-08T14:53:13;8.25;;;7.07;;
64875;SDS011;51369;49.862;9.908;2023-07-08T14:55:39;6.93;;;6.22;;
64875;SDS011;51369;49.862;9.908;2023-07-08T14:58:04;8.43;;;6.38;;
64875;SDS011;51369;49.862;9.908;2023-07-08T15:00:30;6.93;;;6.15;;
64875;SDS011;51369;49.862;9.908;2023-07-08T15:02:55;7.93;;;6.25;;
64875;SDS011;51369;49.862;9.908;2023-07-08T15:05:22;9.63;;;6.25;;
64875;SDS011;51369;49.862;9.908;2023-07-08T15:07:49;7.22;;;6.45;;
64875;SDS011;51369;49.862;9.908;2023-07-08T15:10:16;8.93;;;6.18;;
64875;SDS011;51369;49.862;9.908;2023-07-08T15:12:42;9.25;;;7.00;;
64875;SDS011;51369;49.862;9.908;2023-07-08T15:15:14;7.55;;;6.85;;
64875;SDS011;51369;49.862;9.908;2023-07-08T15:17:41;7.22;;;6.22;;
64875;SDS011;51369;49.862;9.908;2023-07-08T15:20:08;9.35;;;6.72;;
64875;SDS011;51369;49.862;9.908;2023-07-08T15:22:38;8.57;;;6.57;;
64875;SDS011;51369;49.862;9.908;2023-07-08T15:25:03;6.95;;;6.25;;
64875;SDS011;51369;49.862;9.908;2023-07-08T15:27:29;10.68;;;7.00;;
64875;SDS011;51369;49.862;9.908;2023-07-08T15:29:55;8.63;;;6.80;;
64875;SDS011;51369;49.862;9.908;2023-07-08T15:32:20;7.03;;;6.32;;
64875;SDS011;51369;49.862;9.908;2023-07-08T15:34:45;7.47;;;6.72;;
64875;SDS011;51369;49.862;9.908;2023-07-08T15:37:11;9.35;;;6.22;;
64875;SDS011;51369;49.862;9.908;2023-07-08T15:39:37;8.48;;;6.63;;
64875;SDS011;51369;49.862;9.908;2023-07-08T15:42:02;8.10;;;6.00;;
64875;SDS011;51369;49.862;9.908;2023-07-08T15:44:28;8.18;;;6.60;;
64875;SDS011;51369;49.862;9.908;2023-07-08T15:46:53;9.57;;;7.20;;